• Join FlightAware (Why Join?)
  • Login
  • US Flag 
11:36AM EST


 

Airport Tracker/Info


-or-


 

Live Flight TrackerFlight Track Log ✈ JBU56 ✈ 16-Jul-2013 ✈ KIAD - KBOS

Flight Track Log - Related Links

Times and Time Zones

All times are in EDT time to prevent confusion due to time zone crossing. See the JBU56 flight status page for this flight to view local times or setup timezone preferences in your user account.

Time Position Orientation Groundspeed Altitude Reporting Facility
EDT Latitude Longitude Course Direction KTS MPH feet Rate Location/Type
09:03AM 38.9500 -77.5167 78° East 164 189 1,800  Level Potomac TRACON
09:04AM 39.0000 -77.5167 360° North 255 293 3,000 2,040 Climbing Potomac TRACON
09:05AM 39.0667 -77.5167 360° North 234 269 5,700 2,640 Climbing Potomac TRACON
09:06AM 39.0234 -76.9882 77° East  Level FlightAware Approximate
09:06AM 39.1333 -77.4667 30° Northeast 276 318 8,300  Level Potomac TRACON
09:07AM 39.0444 -76.8671 78° East  Level FlightAware Approximate
09:08AM 39.0646 -76.7457 78° East  Level FlightAware Approximate
09:08AM 39.1289 -77.2747 92° East 288 331 10,500  Level Washington Center
09:09AM 39.1011 -77.1617 108° East 310 357 13,500 2,760 Climbing Washington Center
09:10AM 39.0858 -77.0464 100° East 318 366 16,100 2,160 Climbing Washington Center
09:11AM 39.0978 -76.9236 83° East 329 379 18,000 2,100 Climbing Washington Center
09:12AM 39.1094 -76.7953 83° East 340 391 20,400 2,160 Climbing Washington Center
09:13AM 39.1211 -76.6644 83° East 355 409 22,400 1,260 Climbing Washington Center
09:14AM 39.1328 -76.5308 84° East 365 420 23,000 240 Climbing Washington Center
09:15AM 39.1461 -76.3972 83° East 371 427 23,000  Level Washington Center
09:16AM 39.1553 -76.2661 85° East 371 427 23,000  Level Washington Center
09:17AM 39.1728 -76.1189 81° East 371 427 23,000 840 Level Washington Center
09:18AM 39.1836 -75.9825 84° East 371 427 24,800 1,620 Climbing Washington Center
09:19AM 39.2111 -75.8647 73° East 376 433 26,300 1,440 Climbing Washington Center
09:20AM 39.2906 -75.7497 48° Northeast 365 420 27,700 1,320 Climbing Washington Center
09:21AM 39.3656 -75.6561 44° Northeast 408 470 29,000 1,200 Climbing Washington Center
09:22AM 39.4489 -75.5486 45° Northeast 415 478 30,100 960 Climbing Washington Center
09:23AM 39.5406 -75.4300 45° Northeast 415 478 31,000 240 Climbing Washington Center
09:25AM 39.7244 -75.1839 46° Northeast 443 510 31,000  Level New York Center
09:26AM 39.8083 -75.0622 48° Northeast 449 517 31,000  Level New York Center
09:27AM 39.8919 -74.9400 48° Northeast 449 517 31,000  Level New York Center
09:28AM 39.9861 -74.8075 47° Northeast 454 522 31,000  Level New York Center
09:29AM 40.0717 -74.6850 48° Northeast 454 522 31,000  Level New York Center
09:30AM 40.1547 -74.5647 48° Northeast 454 522 31,000  Level New York Center
09:31AM 40.2481 -74.4475 44° Northeast 454 522 31,000  Level New York Center
09:32AM 40.3450 -74.3439 39° Northeast 454 522 31,000  Level New York Center
09:34AM 40.4989 -74.1758 40° Northeast 475 547 31,000 -60 Level Boston Center
09:35AM 40.5675 -74.0411 56° Northeast 442 509 30,900 -540 Descending Boston Center
09:36AM 40.6072 -73.8861 71° East 426 490 30,000 -960 Descending Boston Center
09:37AM 40.6611 -73.7342 65° Northeast 442 509 29,000 -1,740 Descending Boston Center
09:38AM 40.7458 -73.6044 49° Northeast 464 534 26,600 -2,400 Descending Boston Center
09:39AM 40.8283 -73.4825 48° Northeast 451 519 24,300 -1,320 Descending Boston Center
09:40AM 40.9108 -73.3600 48° Northeast 441 507 24,000 -360 Descending Boston Center
09:41AM 40.9908 -73.2458 47° Northeast 433 498 23,600 -540 Descending Boston Center
09:42AM 41.0708 -73.1283 48° Northeast 433 498 23,000 -300 Descending Boston Center
09:43AM 41.1403 -73.0022 54° Northeast 428 493 23,000  Level Boston Center
09:44AM 41.1950 -72.8622 63° Northeast 428 493 23,000  Level Boston Center
09:45AM 41.2475 -72.7161 64° Northeast 422 486 23,000  Level Boston Center
09:46AM 41.2978 -72.5839 63° Northeast 432 497 23,000  Level Boston Center
09:47AM 41.3522 -72.4400 63° Northeast 437 503 23,000 -420 Level Boston Center
09:48AM 41.4061 -72.2961 63° Northeast 437 503 22,200 -1,380 Descending Boston Center
09:49AM 41.4600 -72.1492 64° Northeast 422 486 20,300 -1,920 Descending Boston Center
09:50AM 41.5097 -72.0161 63° Northeast 410 472 18,400 -1,740 Descending Boston Center
09:51AM 41.5550 -71.8964 63° Northeast 395 455 16,900 -1,680 Descending Boston Center
09:52AM 41.6064 -71.7517 65° Northeast 390 449 15,100 -1,680 Descending Boston Center
09:53AM 41.6453 -71.6456 64° Northeast 367 422 13,600 -1,500 Descending Boston Center
09:54AM 41.6922 -71.5200 63° Northeast 345 397 12,100 -1,320 Descending Boston Center
09:55AM 41.7331 -71.4219 61° Northeast 312 359 11,000 -600 Descending Boston Center
09:56AM 41.7844 -71.3319 53° Northeast 299 344 11,000  Level Boston Center
09:57AM 41.8461 -71.2697 37° Northeast 284 327 11,000 -180 Level Boston Center
09:58AM 41.9186 -71.2264 24° Northeast 279 321 10,700 -1,320 Descending Boston Center
09:59AM 41.9914 -71.1886 21° North 274 315 8,400 -2,100 Descending Boston Center
10:00AM 42.0597 -71.1567 19° North 266 306 6,600 -1,980 Descending Boston Center
10:01AM 42.1258 -71.1189 23° Northeast 255 293 4,500 -1,140 Descending Boston Center
10:02AM 42.2000 -71.0833 20° North 179 206 4,000 -660 Descending KA90
10:03AM 42.2500 -71.0667 14° North 174 200 3,000 -960 Descending KA90
10:04AM 42.2833 -71.0500 20° North 174 200 2,100 -1,200 Descending KA90
10:05AM 42.3333 -71.0333 14° North 158 182 600 7,140 Descending KA90
10:07AM 42.4078 -70.9892 24° Northeast 161 185 23,000 11,640 Climbing Boston Center